ムンバイ の空港の天気 - METARとTAF

チャットラパティー・シヴァージー国際空港 ( VABB / BOM ) - インド ムンバイ
飛行場実況気象(Metar)
観測時間12/16 00:30 IST (12/15 19:00 UTC)
風向・風速静穏 0m/s
視程1500m
天気現象煙霧
少しの雲 雲底高度 3050m
気温25℃
湿度74%
気圧1015hPa
METARVABB 151900Z 00000KT 1500 HZ FEW100 25/20 Q1015 NOSIG
過去の天気等 Google飛行場航空写真 Wunderground天気予報

過去48時間のMETAR

飛行場予報(TAF)
発表時間: 12/15 22:30 IST (12/15 17:00 UTC)
予報対象時間: 15日23時 IST ~ 17日5時 IST
風向・風速北北東 3m/s
視程2,000m
天気現象煙霧
少しの雲 雲底高度 610m
16日3時 IST ~ 16日5時 IST に徐々に
風向・風速東北東 2m/s
視程1,500m
天気現象もや 煙霧
16日3時 IST ~ 16日8時 IST に一時的に
風向・風速不定 1m/s
視程1,000m
天気現象もや
16日8時 IST ~ 16日10時 IST に徐々に
風向・風速西北西 3m/s
視程2,000m
天気現象もや 煙霧
全天の4割程度の雲 雲底高度 610m
16日12時 IST ~ 16日14時 IST に徐々に
風向・風速北西 5m/s
視程3,000m
天気現象煙霧 煙
少しの雲 雲底高度 610m
16日16時 IST ~ 16日18時 IST に徐々に
風向・風速北 4m/s
視程2,500m
天気現象煙霧 煙
なし
16日22時 IST ~ 17日24時 IST に徐々に
風向・風速東北東 5m/s
視程2,000m
天気現象煙霧
17日3時 IST ~ 17日5時 IST に徐々に
風向・風速東 4m/s
視程1,500m
天気現象もや 煙霧
TAF VABB 151700Z 1518/1624 03006KT 2000 HZ FEW020
BECMG 1522/1524 07003KT 1500 BR HZ
TEMPO 1522/1603 VRB02KT 1000 BR
BECMG 1603/1605 29006KT 2000 BR HZ SCT020
BECMG 1607/1609 32010KT 3000 HZ FU FEW020
BECMG 1611/1613 01007KT 2500 HZ FU NSC
BECMG 1617/1619 06010KT 2000 HZ
BECMG 1622/1624 09007KT 1500 BR HZ